Airfield :
LOGIN :

Register | Disclaimer

   EN    FR    IT 

 










Legend :    VFR   Marginal VFR   IFR   Intensive IFR   Very Intensive IFR
Visi :
Ceiling :
>= 8 km
>= 3000ft
5 to 8 km
1000 to 3000 ft
1500m to 5 km
500 to 1000 ft
800 to 1500m
200 to 500 ft
< 800m
< 200 ft
Symbols :   Thunderstorms  Fog  Heavy snow  Heavy precipitations  Wind > 20 kt
SIGMETs :     Misc.  Thunderstorms  Icing  Turbulence  Mountain Waves  Volcanic Ashes






- Airport Elevation : 1568 ft


ETSB - Büchel AB

CURRENT METAR :
  • 250820Z 28006KT 8000 SCT012 BKN050 15/12 Q1019 BLU BLU

EXPIRED METARs :
  • 250720Z 25005KT 5000 BR FEW006 SCT010 BKN050 14/12 Q1020 WHT WHT BECMG BLU
  • 250620Z 23005KT 4000 BR FEW005 BKN030 BKN060 13/12 Q1019 GRN WHT TEMPO YLO

TAF TAF ETSB
Valid from the 25 at 08:00 until the 25 at 17:00 UTC


250710Z 2508/2517 26007KT 5000 BR SCT006 BKN045
BECMG 2508/2509 24007KT 9999 NSW SCT002 BKN045 BY ETGL



MET'MAP, your aeronautical weather chart ! - Copyright ORBIFLY December 2007 - Disclaimer

ORBIFLY MET'MAP TEAM :

Programming & Development : Alexandra Zaïnal
Concept & original design : Baudouin d'Aumeries
Assistance for programming : Marc-Olivier Méhu
Technical & hardware support : Manuel Goepfert

Contact : metmap@orbifly.com




SOURCES & CREDITS :

   NOAA